AZU2619 SBKP-SBPA
Flight info
| Callsign | AZU2619 |
|---|---|
| Flight time | 1h 34m |
| Altitude | 38000 |
| Route | SOVSI DCT ARTUT UZ38 VUKMO |
| Aircraft | A20N/M-SDE2E3FGHIRWXY/LB1 |
Departure
| Time | 2026-05-08 13:44 |
|---|---|
| Airport | Viracopos International Airport (SBKP) |
Arrival
| Time | 2026-05-08 15:19 |
|---|---|
| Airport | Porto Alegre-Salgado Filho International Airport (SBPA) |
| Time | Latitude | Longitude | Altitude | Speed | Heading |
|---|---|---|---|---|---|
| 2026-05-08 13:17 | -23.00447 | -47.15005 | 2157 ft | 0 kts | 38° |
| 2026-05-08 13:33 | -23.00455 | -47.15012 | 2151 ft | 2 kts | 38° |
| 2026-05-08 13:33 | -23.00466 | -47.15022 | 2151 ft | 2 kts | 38° |
| 2026-05-08 13:33 | -23.00477 | -47.15031 | 2153 ft | 2 kts | 22° |
| 2026-05-08 13:34 | -23.00490 | -47.15035 | 2153 ft | 2 kts | 330° |
| 2026-05-08 13:34 | -23.00497 | -47.15026 | 2152 ft | 0 kts | 308° |
| 2026-05-08 13:35 | -23.00496 | -47.15028 | 2152 ft | 2 kts | 308° |
| 2026-05-08 13:35 | -23.00477 | -47.15055 | 2152 ft | 7 kts | 308° |
| 2026-05-08 13:36 | -23.00438 | -47.15110 | 2156 ft | 11 kts | 308° |
| 2026-05-08 13:36 | -23.00384 | -47.15160 | 2153 ft | 10 kts | 351° |
| 2026-05-08 13:36 | -23.00322 | -47.15124 | 2151 ft | 10 kts | 37° |
| 2026-05-08 13:36 | -23.00262 | -47.15072 | 2154 ft | 12 kts | 38° |
| 2026-05-08 13:37 | -23.00191 | -47.15011 | 2154 ft | 14 kts | 37° |
| 2026-05-08 13:37 | -23.00118 | -47.14936 | 2153 ft | 15 kts | 65° |
| 2026-05-08 13:37 | -23.00107 | -47.14818 | 2151 ft | 15 kts | 108° |
| 2026-05-08 13:37 | -23.00169 | -47.14724 | 2153 ft | 16 kts | 128° |
| 2026-05-08 13:38 | -23.00238 | -47.14627 | 2150 ft | 17 kts | 129° |
| 2026-05-08 13:38 | -23.00311 | -47.14527 | 2155 ft | 17 kts | 127° |
| 2026-05-08 13:38 | -23.00386 | -47.14421 | 2157 ft | 18 kts | 128° |
| 2026-05-08 13:38 | -23.00465 | -47.14312 | 2152 ft | 19 kts | 128° |
| 2026-05-08 13:39 | -23.00545 | -47.14200 | 2153 ft | 19 kts | 128° |
| 2026-05-08 13:39 | -23.00625 | -47.14089 | 2156 ft | 19 kts | 128° |
| 2026-05-08 13:39 | -23.00690 | -47.13970 | 2152 ft | 18 kts | 112° |
| 2026-05-08 13:39 | -23.00718 | -47.13840 | 2157 ft | 17 kts | 95° |
| 2026-05-08 13:40 | -23.00769 | -47.13727 | 2154 ft | 17 kts | 128° |
| 2026-05-08 13:40 | -23.00836 | -47.13633 | 2152 ft | 15 kts | 128° |
| 2026-05-08 13:40 | -23.00908 | -47.13533 | 2149 ft | 20 kts | 128° |
| 2026-05-08 13:40 | -23.00997 | -47.13409 | 2155 ft | 21 kts | 128° |
| 2026-05-08 13:41 | -23.01087 | -47.13280 | 2153 ft | 22 kts | 128° |
| 2026-05-08 13:41 | -23.01184 | -47.13148 | 2155 ft | 23 kts | 128° |
| 2026-05-08 13:41 | -23.01282 | -47.13010 | 2154 ft | 23 kts | 128° |
| 2026-05-08 13:41 | -23.01383 | -47.12867 | 2149 ft | 24 kts | 128° |
| 2026-05-08 13:42 | -23.01488 | -47.12721 | 2149 ft | 25 kts | 127° |
| 2026-05-08 13:42 | -23.01595 | -47.12571 | 2152 ft | 25 kts | 128° |
| 2026-05-08 13:42 | -23.01705 | -47.12419 | 2153 ft | 23 kts | 129° |
| 2026-05-08 13:42 | -23.01751 | -47.12336 | 2151 ft | 10 kts | 96° |
| 2026-05-08 13:43 | -23.01716 | -47.12280 | 2152 ft | 9 kts | 38° |
| 2026-05-08 13:43 | -23.01665 | -47.12236 | 2153 ft | 9 kts | 38° |
| 2026-05-08 13:43 | -23.01606 | -47.12243 | 2153 ft | 10 kts | 319° |
| 2026-05-08 13:43 | -23.01552 | -47.12317 | 2154 ft | 20 kts | 308° |
| 2026-05-08 13:44 | -23.01323 | -47.12634 | 2154 ft | 86 kts | 308° |
| 2026-05-08 13:44 | -23.00845 | -47.13304 | 2151 ft | 136 kts | 308° |
| 2026-05-08 13:44 | -23.00189 | -47.14228 | 2294 ft | 163 kts | 312° |
| 2026-05-08 13:44 | -22.99631 | -47.15290 | 2873 ft | 169 kts | 286° |
| 2026-05-08 13:45 | -22.99680 | -47.16648 | 3068 ft | 196 kts | 261° |
| 2026-05-08 13:45 | -23.00080 | -47.18122 | 3387 ft | 210 kts | 257° |
| 2026-05-08 13:45 | -23.00575 | -47.19685 | 3654 ft | 230 kts | 257° |
| 2026-05-08 13:45 | -23.01117 | -47.21411 | 3892 ft | 253 kts | 257° |
| 2026-05-08 13:46 | -23.01781 | -47.23247 | 4393 ft | 271 kts | 244° |
| 2026-05-08 13:46 | -23.03084 | -47.24757 | 5089 ft | 285 kts | 225° |
| 2026-05-08 13:46 | -23.04636 | -47.26095 | 5845 ft | 285 kts | 225° |
| 2026-05-08 13:46 | -23.06180 | -47.27447 | 6589 ft | 285 kts | 226° |
| 2026-05-08 13:47 | -23.07719 | -47.28811 | 7232 ft | 286 kts | 226° |
| 2026-05-08 13:47 | -23.09261 | -47.30188 | 7910 ft | 288 kts | 226° |
| 2026-05-08 13:47 | -23.10807 | -47.31573 | 8591 ft | 289 kts | 226° |
| 2026-05-08 13:47 | -23.12416 | -47.32899 | 9259 ft | 295 kts | 216° |
| 2026-05-08 13:48 | -23.14340 | -47.33757 | 9891 ft | 306 kts | 198° |
| 2026-05-08 13:48 | -23.16482 | -47.33965 | 10484 ft | 313 kts | 182° |
| 2026-05-08 13:48 | -23.18666 | -47.33901 | 11058 ft | 315 kts | 181° |
| 2026-05-08 13:48 | -23.20864 | -47.33842 | 11607 ft | 317 kts | 182° |
| 2026-05-08 13:49 | -23.23083 | -47.33785 | 12158 ft | 320 kts | 181° |
| 2026-05-08 13:49 | -23.25314 | -47.33726 | 12697 ft | 323 kts | 181° |
| 2026-05-08 13:49 | -23.27573 | -47.33667 | 13245 ft | 325 kts | 181° |
| 2026-05-08 13:49 | -23.29842 | -47.33607 | 13784 ft | 328 kts | 181° |
| 2026-05-08 13:50 | -23.32131 | -47.33549 | 14267 ft | 330 kts | 181° |
| 2026-05-08 13:50 | -23.34428 | -47.33602 | 14726 ft | 330 kts | 190° |
| 2026-05-08 13:50 | -23.36698 | -47.33999 | 15166 ft | 332 kts | 193° |
| 2026-05-08 13:50 | -23.38985 | -47.34413 | 15615 ft | 334 kts | 192° |
| 2026-05-08 13:51 | -23.41288 | -47.34825 | 16064 ft | 336 kts | 192° |
| 2026-05-08 13:51 | -23.43608 | -47.35238 | 16522 ft | 339 kts | 192° |
| 2026-05-08 13:51 | -23.45937 | -47.35652 | 16970 ft | 341 kts | 192° |
| 2026-05-08 13:51 | -23.48285 | -47.36070 | 17443 ft | 343 kts | 192° |
| 2026-05-08 13:52 | -23.50652 | -47.36492 | 17905 ft | 346 kts | 192° |
| 2026-05-08 13:52 | -23.52864 | -47.36887 | 18037 ft | 348 kts | 192° |
| 2026-05-08 13:52 | -23.55134 | -47.37292 | 18060 ft | 347 kts | 192° |
| 2026-05-08 13:52 | -23.57516 | -47.37717 | 18061 ft | 348 kts | 192° |
| 2026-05-08 13:53 | -23.59905 | -47.38141 | 18061 ft | 349 kts | 192° |
| 2026-05-08 13:53 | -23.62297 | -47.38568 | 18063 ft | 347 kts | 191° |
| 2026-05-08 13:53 | -23.64674 | -47.38992 | 18051 ft | 347 kts | 192° |
| 2026-05-08 13:53 | -23.67053 | -47.39417 | 18050 ft | 345 kts | 191° |
| 2026-05-08 13:54 | -23.69414 | -47.39838 | 18051 ft | 343 kts | 192° |
| 2026-05-08 13:54 | -23.71778 | -47.40260 | 18048 ft | 344 kts | 192° |
| 2026-05-08 13:54 | -23.74153 | -47.40684 | 18033 ft | 346 kts | 192° |
| 2026-05-08 13:54 | -23.76521 | -47.41107 | 18031 ft | 346 kts | 193° |
| 2026-05-08 13:55 | -23.78910 | -47.41535 | 18032 ft | 346 kts | 192° |
| 2026-05-08 13:55 | -23.81289 | -47.41961 | 18032 ft | 348 kts | 192° |
| 2026-05-08 13:55 | -23.86053 | -47.42811 | 18021 ft | 347 kts | 192° |
| 2026-05-08 13:56 | -23.88437 | -47.43239 | 18015 ft | 348 kts | 192° |
| 2026-05-08 13:56 | -23.90823 | -47.43669 | 18022 ft | 347 kts | 192° |
| 2026-05-08 13:56 | -23.93210 | -47.44100 | 18017 ft | 348 kts | 192° |
| 2026-05-08 13:56 | -23.95605 | -47.44530 | 18016 ft | 349 kts | 192° |
| 2026-05-08 13:57 | -23.97996 | -47.44961 | 18020 ft | 350 kts | 192° |
| 2026-05-08 13:57 | -24.00398 | -47.45392 | 18018 ft | 349 kts | 191° |
| 2026-05-08 13:57 | -24.02797 | -47.45822 | 18016 ft | 348 kts | 192° |
| 2026-05-08 13:57 | -24.05189 | -47.46251 | 18000 ft | 348 kts | 192° |
| 2026-05-08 13:58 | -24.07583 | -47.46684 | 18001 ft | 349 kts | 192° |
| 2026-05-08 13:58 | -24.09966 | -47.47160 | 17997 ft | 348 kts | 196° |
| 2026-05-08 13:58 | -24.12274 | -47.47916 | 17995 ft | 345 kts | 204° |
| 2026-05-08 13:58 | -24.14520 | -47.48849 | 17976 ft | 345 kts | 204° |
| 2026-05-08 13:59 | -24.16773 | -47.49777 | 17977 ft | 346 kts | 204° |
| 2026-05-08 13:59 | -24.19027 | -47.50703 | 17976 ft | 346 kts | 203° |
| 2026-05-08 13:59 | -24.21274 | -47.51622 | 17979 ft | 345 kts | 204° |
| 2026-05-08 13:59 | -24.23529 | -47.52543 | 17977 ft | 345 kts | 203° |
| 2026-05-08 14:00 | -24.25780 | -47.53464 | 17961 ft | 346 kts | 203° |
| 2026-05-08 14:00 | -24.28031 | -47.54388 | 17965 ft | 345 kts | 203° |
| 2026-05-08 14:00 | -24.30279 | -47.55311 | 17954 ft | 345 kts | 204° |
| 2026-05-08 14:00 | -24.32530 | -47.56236 | 17955 ft | 346 kts | 204° |
| 2026-05-08 14:01 | -24.34782 | -47.57162 | 17955 ft | 346 kts | 203° |
| 2026-05-08 14:01 | -24.37033 | -47.58090 | 17951 ft | 346 kts | 204° |
| 2026-05-08 14:01 | -24.39283 | -47.59023 | 17941 ft | 346 kts | 204° |
| 2026-05-08 14:01 | -24.41536 | -47.59958 | 17945 ft | 346 kts | 204° |
| 2026-05-08 14:02 | -24.43787 | -47.60888 | 17945 ft | 346 kts | 204° |
| 2026-05-08 14:02 | -24.46040 | -47.61814 | 17940 ft | 345 kts | 204° |
| 2026-05-08 14:02 | -24.48284 | -47.62736 | 17929 ft | 345 kts | 204° |
| 2026-05-08 14:02 | -24.50537 | -47.63662 | 17928 ft | 345 kts | 204° |
| 2026-05-08 14:03 | -24.52752 | -47.64572 | 17928 ft | 345 kts | 204° |
| 2026-05-08 14:03 | -24.54999 | -47.65498 | 17931 ft | 345 kts | 204° |
| 2026-05-08 14:03 | -24.57246 | -47.66427 | 17932 ft | 345 kts | 204° |
| 2026-05-08 14:03 | -24.59492 | -47.67353 | 17922 ft | 345 kts | 204° |
| 2026-05-08 14:04 | -24.61739 | -47.68282 | 17920 ft | 345 kts | 204° |
| 2026-05-08 14:04 | -24.63984 | -47.69215 | 17928 ft | 345 kts | 205° |
| 2026-05-08 14:04 | -24.66260 | -47.70164 | 17920 ft | 345 kts | 205° |
| 2026-05-08 14:04 | -24.68476 | -47.71083 | 17925 ft | 345 kts | 205° |
| 2026-05-08 14:05 | -24.70754 | -47.72027 | 17980 ft | 347 kts | 205° |
| 2026-05-08 14:05 | -24.72984 | -47.72951 | 18457 ft | 348 kts | 205° |
| 2026-05-08 14:05 | -24.75271 | -47.73901 | 18738 ft | 358 kts | 205° |
| 2026-05-08 14:05 | -24.77654 | -47.74895 | 18857 ft | 375 kts | 205° |
| 2026-05-08 14:06 | -24.80148 | -47.75930 | 18995 ft | 392 kts | 205° |
| 2026-05-08 14:06 | -24.82734 | -47.76999 | 19430 ft | 400 kts | 205° |
| 2026-05-08 14:06 | -24.85357 | -47.78080 | 20013 ft | 404 kts | 205° |
| 2026-05-08 14:06 | -24.88000 | -47.79168 | 20645 ft | 407 kts | 205° |
| 2026-05-08 14:07 | -24.90659 | -47.80267 | 21296 ft | 409 kts | 206° |
| 2026-05-08 14:07 | -24.93324 | -47.81375 | 21914 ft | 412 kts | 206° |
| 2026-05-08 14:07 | -24.96011 | -47.82497 | 22546 ft | 414 kts | 207° |
| 2026-05-08 14:07 | -24.98716 | -47.83626 | 23186 ft | 416 kts | 207° |
| 2026-05-08 14:08 | -25.01435 | -47.84757 | 23751 ft | 419 kts | 207° |
| 2026-05-08 14:08 | -25.04164 | -47.85892 | 24251 ft | 421 kts | 207° |
| 2026-05-08 14:08 | -25.06919 | -47.87040 | 24737 ft | 424 kts | 207° |
| 2026-05-08 14:08 | -25.09690 | -47.88196 | 25216 ft | 427 kts | 208° |
| 2026-05-08 14:09 | -25.12479 | -47.89362 | 25676 ft | 430 kts | 208° |
| 2026-05-08 14:09 | -25.15286 | -47.90533 | 26150 ft | 433 kts | 208° |
| 2026-05-08 14:09 | -25.18116 | -47.91715 | 26632 ft | 436 kts | 208° |
| 2026-05-08 14:09 | -25.20963 | -47.92905 | 27100 ft | 439 kts | 208° |
| 2026-05-08 14:10 | -25.23833 | -47.94102 | 27561 ft | 442 kts | 208° |
| 2026-05-08 14:10 | -25.26709 | -47.95303 | 28025 ft | 444 kts | 209° |
| 2026-05-08 14:10 | -25.29609 | -47.96517 | 28489 ft | 447 kts | 209° |
| 2026-05-08 14:10 | -25.32530 | -47.97739 | 28941 ft | 450 kts | 209° |
| 2026-05-08 14:11 | -25.35466 | -47.98966 | 29383 ft | 452 kts | 209° |
| 2026-05-08 14:11 | -25.38419 | -48.00203 | 29821 ft | 455 kts | 209° |
| 2026-05-08 14:11 | -25.41391 | -48.01452 | 30209 ft | 458 kts | 210° |
| 2026-05-08 14:11 | -25.44374 | -48.02708 | 30576 ft | 460 kts | 210° |
| 2026-05-08 14:12 | -25.47364 | -48.03964 | 30934 ft | 462 kts | 210° |
| 2026-05-08 14:12 | -25.50381 | -48.05229 | 31274 ft | 464 kts | 209° |
| 2026-05-08 14:12 | -25.53404 | -48.06494 | 31710 ft | 464 kts | 209° |
| 2026-05-08 14:12 | -25.56417 | -48.07755 | 32214 ft | 462 kts | 209° |
| 2026-05-08 14:13 | -25.59426 | -48.09014 | 32707 ft | 461 kts | 209° |
| 2026-05-08 14:13 | -25.62379 | -48.10336 | 33183 ft | 454 kts | 214° |
| 2026-05-08 14:13 | -25.65093 | -48.12034 | 33654 ft | 444 kts | 221° |
| 2026-05-08 14:13 | -25.67679 | -48.13892 | 34084 ft | 442 kts | 221° |
| 2026-05-08 14:14 | -25.70257 | -48.15738 | 34525 ft | 441 kts | 221° |
| 2026-05-08 14:14 | -25.72832 | -48.17571 | 34970 ft | 439 kts | 221° |
| 2026-05-08 14:14 | -25.75395 | -48.19390 | 35415 ft | 436 kts | 222° |
| 2026-05-08 14:14 | -25.77943 | -48.21201 | 35828 ft | 434 kts | 222° |
| 2026-05-08 14:15 | -25.80478 | -48.23007 | 36265 ft | 432 kts | 223° |
| 2026-05-08 14:15 | -25.82997 | -48.24806 | 36659 ft | 430 kts | 223° |
| 2026-05-08 14:15 | -25.85506 | -48.26601 | 37059 ft | 427 kts | 223° |
| 2026-05-08 14:15 | -25.88000 | -48.28381 | 37446 ft | 425 kts | 223° |
| 2026-05-08 14:16 | -25.90477 | -48.30146 | 37798 ft | 424 kts | 223° |
| 2026-05-08 14:16 | -25.95382 | -48.33647 | 37878 ft | 420 kts | 224° |
| 2026-05-08 14:17 | -26.00281 | -48.37158 | 37874 ft | 419 kts | 224° |
| 2026-05-08 14:17 | -26.05179 | -48.40671 | 37881 ft | 420 kts | 223° |
| 2026-05-08 14:18 | -26.10098 | -48.44213 | 37869 ft | 423 kts | 223° |
| 2026-05-08 14:18 | -26.15070 | -48.47781 | 37875 ft | 427 kts | 223° |
| 2026-05-08 14:19 | -26.19219 | -48.50755 | 37873 ft | 427 kts | 223° |
| 2026-05-08 14:19 | -26.24217 | -48.54344 | 37872 ft | 427 kts | 223° |
| 2026-05-08 14:20 | -26.29203 | -48.57938 | 37873 ft | 427 kts | 223° |
| 2026-05-08 14:20 | -26.34195 | -48.61548 | 37874 ft | 427 kts | 223° |
| 2026-05-08 14:21 | -26.39191 | -48.65154 | 37876 ft | 428 kts | 223° |
| 2026-05-08 14:21 | -26.44206 | -48.68779 | 37859 ft | 431 kts | 223° |
| 2026-05-08 14:22 | -26.49245 | -48.72434 | 37856 ft | 432 kts | 223° |
| 2026-05-08 14:22 | -26.54271 | -48.76134 | 37848 ft | 433 kts | 223° |
| 2026-05-08 14:23 | -26.59302 | -48.79862 | 37859 ft | 434 kts | 223° |
| 2026-05-08 14:23 | -26.64345 | -48.83590 | 37865 ft | 435 kts | 223° |
| 2026-05-08 14:24 | -26.69403 | -48.87322 | 37870 ft | 437 kts | 223° |
| 2026-05-08 14:24 | -26.74498 | -48.91034 | 37863 ft | 438 kts | 223° |
| 2026-05-08 14:25 | -26.79619 | -48.94757 | 37866 ft | 439 kts | 223° |
| 2026-05-08 14:25 | -26.84737 | -48.98496 | 37865 ft | 439 kts | 223° |
| 2026-05-08 14:26 | -26.89858 | -49.02241 | 37871 ft | 440 kts | 223° |
| 2026-05-08 14:26 | -26.94949 | -49.05981 | 37877 ft | 440 kts | 223° |
| 2026-05-08 14:27 | -27.00073 | -49.09754 | 37897 ft | 441 kts | 223° |
| 2026-05-08 14:27 | -27.05212 | -49.13528 | 37886 ft | 442 kts | 223° |
| 2026-05-08 14:28 | -27.10357 | -49.17313 | 37877 ft | 443 kts | 223° |
| 2026-05-08 14:28 | -27.15509 | -49.21108 | 37884 ft | 443 kts | 223° |
| 2026-05-08 14:29 | -27.20667 | -49.24913 | 37880 ft | 443 kts | 223° |
| 2026-05-08 14:29 | -27.25824 | -49.28722 | 37879 ft | 443 kts | 224° |
| 2026-05-08 14:30 | -27.30985 | -49.32530 | 37905 ft | 444 kts | 224° |
| 2026-05-08 14:30 | -27.36146 | -49.36344 | 37909 ft | 443 kts | 224° |
| 2026-05-08 14:31 | -27.41291 | -49.40160 | 37909 ft | 444 kts | 224° |
| 2026-05-08 14:31 | -27.46452 | -49.43989 | 37912 ft | 444 kts | 224° |
| 2026-05-08 14:32 | -27.54189 | -49.49732 | 37915 ft | 444 kts | 224° |
| 2026-05-08 14:32 | -27.59343 | -49.53558 | 37953 ft | 444 kts | 225° |
| 2026-05-08 14:33 | -27.64505 | -49.57389 | 37924 ft | 445 kts | 225° |
| 2026-05-08 14:33 | -27.69685 | -49.61233 | 37914 ft | 446 kts | 224° |
| 2026-05-08 14:34 | -27.74868 | -49.65075 | 37903 ft | 446 kts | 224° |
| 2026-05-08 14:34 | -27.80077 | -49.68836 | 37902 ft | 448 kts | 223° |
| 2026-05-08 14:35 | -27.85370 | -49.72568 | 37904 ft | 449 kts | 223° |
| 2026-05-08 14:35 | -27.90658 | -49.76318 | 37950 ft | 448 kts | 224° |
| 2026-05-08 14:36 | -27.95931 | -49.80082 | 37670 ft | 448 kts | 224° |
| 2026-05-08 14:36 | -27.98567 | -49.81970 | 37398 ft | 449 kts | 224° |
| 2026-05-08 14:36 | -28.01206 | -49.83865 | 37133 ft | 449 kts | 224° |
| 2026-05-08 14:37 | -28.03847 | -49.85765 | 36870 ft | 450 kts | 224° |
| 2026-05-08 14:37 | -28.06497 | -49.87670 | 36612 ft | 452 kts | 223° |
| 2026-05-08 14:37 | -28.09152 | -49.89576 | 36346 ft | 453 kts | 223° |
| 2026-05-08 14:37 | -28.11816 | -49.91487 | 36106 ft | 454 kts | 223° |
| 2026-05-08 14:38 | -28.14491 | -49.93406 | 35855 ft | 456 kts | 223° |
| 2026-05-08 14:38 | -28.17171 | -49.95329 | 35612 ft | 457 kts | 223° |
| 2026-05-08 14:38 | -28.19854 | -49.97257 | 35419 ft | 457 kts | 223° |
| 2026-05-08 14:38 | -28.22533 | -49.99181 | 35184 ft | 455 kts | 223° |
| 2026-05-08 14:39 | -28.25204 | -50.01102 | 34942 ft | 453 kts | 223° |
| 2026-05-08 14:39 | -28.27864 | -50.03019 | 34705 ft | 452 kts | 223° |
| 2026-05-08 14:39 | -28.30510 | -50.04927 | 34470 ft | 451 kts | 222° |
| 2026-05-08 14:39 | -28.33159 | -50.06833 | 34242 ft | 450 kts | 222° |
| 2026-05-08 14:40 | -28.35795 | -50.08728 | 34010 ft | 449 kts | 222° |
| 2026-05-08 14:40 | -28.38432 | -50.10630 | 33762 ft | 447 kts | 222° |
| 2026-05-08 14:40 | -28.41052 | -50.12523 | 33442 ft | 444 kts | 222° |
| 2026-05-08 14:40 | -28.43649 | -50.14397 | 32896 ft | 441 kts | 222° |
| 2026-05-08 14:41 | -28.46234 | -50.16263 | 32361 ft | 439 kts | 222° |
| 2026-05-08 14:41 | -28.48806 | -50.18120 | 31822 ft | 437 kts | 222° |
| 2026-05-08 14:41 | -28.51366 | -50.19973 | 31317 ft | 435 kts | 223° |
| 2026-05-08 14:41 | -28.53909 | -50.21820 | 30772 ft | 434 kts | 223° |
| 2026-05-08 14:42 | -28.56446 | -50.23662 | 30254 ft | 432 kts | 223° |
| 2026-05-08 14:42 | -28.58973 | -50.25497 | 29655 ft | 430 kts | 223° |
| 2026-05-08 14:42 | -28.61503 | -50.27339 | 28819 ft | 433 kts | 223° |
| 2026-05-08 14:42 | -28.63980 | -50.29138 | 28607 ft | 421 kts | 223° |
| 2026-05-08 14:43 | -28.66417 | -50.30895 | 28422 ft | 409 kts | 223° |
| 2026-05-08 14:43 | -28.68785 | -50.32603 | 28281 ft | 397 kts | 223° |
| 2026-05-08 14:43 | -28.71080 | -50.34260 | 28152 ft | 384 kts | 223° |
| 2026-05-08 14:43 | -28.73267 | -50.35902 | 28019 ft | 365 kts | 231° |
| 2026-05-08 14:44 | -28.74933 | -50.37890 | 27887 ft | 332 kts | 248° |
| 2026-05-08 14:44 | -28.75957 | -50.40102 | 27735 ft | 303 kts | 262° |
| 2026-05-08 14:44 | -28.76426 | -50.42358 | 27471 ft | 284 kts | 274° |
| 2026-05-08 14:44 | -28.76402 | -50.44549 | 27080 ft | 271 kts | 285° |
| 2026-05-08 14:45 | -28.75948 | -50.46588 | 26914 ft | 263 kts | 295° |
| 2026-05-08 14:45 | -28.75137 | -50.48442 | 26920 ft | 262 kts | 305° |
| 2026-05-08 14:45 | -28.73997 | -50.50054 | 26923 ft | 262 kts | 315° |
| 2026-05-08 14:45 | -28.72568 | -50.51352 | 26922 ft | 265 kts | 325° |
| 2026-05-08 14:46 | -28.70901 | -50.52271 | 26924 ft | 270 kts | 335° |
| 2026-05-08 14:46 | -28.69042 | -50.52739 | 26927 ft | 279 kts | 347° |
| 2026-05-08 14:46 | -28.67071 | -50.52699 | 26925 ft | 290 kts | 358° |
| 2026-05-08 14:46 | -28.65080 | -50.52097 | 26925 ft | 304 kts | 11° |
| 2026-05-08 14:47 | -28.63152 | -50.51019 | 26921 ft | 313 kts | 17° |
| 2026-05-08 14:47 | -28.61263 | -50.49747 | 26921 ft | 317 kts | 20° |
| 2026-05-08 14:47 | -28.59408 | -50.48392 | 26896 ft | 318 kts | 21° |
| 2026-05-08 14:47 | -28.57558 | -50.47003 | 26919 ft | 318 kts | 21° |
| 2026-05-08 14:48 | -28.55708 | -50.45621 | 26923 ft | 318 kts | 21° |
| 2026-05-08 14:48 | -28.53888 | -50.44164 | 26915 ft | 327 kts | 30° |
| 2026-05-08 14:48 | -28.52357 | -50.42165 | 26920 ft | 346 kts | 46° |
| 2026-05-08 14:48 | -28.51338 | -50.39652 | 26916 ft | 366 kts | 65° |
| 2026-05-08 14:49 | -28.51005 | -50.36724 | 26920 ft | 384 kts | 86° |
| 2026-05-08 14:49 | -28.51532 | -50.33708 | 26923 ft | 397 kts | 108° |
| 2026-05-08 14:49 | -28.52922 | -50.30984 | 26916 ft | 402 kts | 131° |
| 2026-05-08 14:49 | -28.55023 | -50.28925 | 26919 ft | 398 kts | 155° |
| 2026-05-08 14:50 | -28.57550 | -50.27787 | 26917 ft | 385 kts | 178° |
| 2026-05-08 14:50 | -28.60151 | -50.27633 | 26914 ft | 367 kts | 198° |
| 2026-05-08 14:50 | -28.62551 | -50.28349 | 26916 ft | 347 kts | 217° |
| 2026-05-08 14:50 | -28.64670 | -50.29583 | 26914 ft | 340 kts | 222° |
| 2026-05-08 14:51 | -28.66692 | -50.30957 | 26916 ft | 337 kts | 224° |
| 2026-05-08 14:51 | -28.68659 | -50.32399 | 26916 ft | 336 kts | 225° |
| 2026-05-08 14:51 | -28.70605 | -50.33861 | 26919 ft | 335 kts | 226° |
| 2026-05-08 14:51 | -28.72554 | -50.35323 | 26923 ft | 334 kts | 227° |
| 2026-05-08 14:52 | -28.74211 | -50.37040 | 26914 ft | 311 kts | 246° |
| 2026-05-08 14:52 | -28.75601 | -50.41298 | 26916 ft | 276 kts | 277° |
| 2026-05-08 14:52 | -28.75416 | -50.43427 | 26935 ft | 267 kts | 290° |
| 2026-05-08 14:53 | -28.74721 | -50.45354 | 26920 ft | 262 kts | 303° |
| 2026-05-08 14:53 | -28.73590 | -50.46970 | 26918 ft | 262 kts | 316° |
| 2026-05-08 14:53 | -28.72099 | -50.48172 | 26917 ft | 266 kts | 329° |
| 2026-05-08 14:53 | -28.70328 | -50.48862 | 26917 ft | 275 kts | 343° |
| 2026-05-08 14:54 | -28.68382 | -50.48932 | 26919 ft | 288 kts | 358° |
| 2026-05-08 14:54 | -28.66399 | -50.48282 | 26920 ft | 308 kts | 15° |
| 2026-05-08 14:54 | -28.64530 | -50.46988 | 26921 ft | 317 kts | 20° |
| 2026-05-08 14:54 | -28.62672 | -50.45646 | 26920 ft | 316 kts | 20° |
| 2026-05-08 14:55 | -28.60812 | -50.44302 | 26920 ft | 319 kts | 22° |
| 2026-05-08 14:55 | -28.59212 | -50.42441 | 26893 ft | 347 kts | 50° |
| 2026-05-08 14:55 | -28.58437 | -50.39738 | 26882 ft | 375 kts | 77° |
| 2026-05-08 14:55 | -28.58673 | -50.36725 | 26889 ft | 393 kts | 103° |
| 2026-05-08 14:56 | -28.59944 | -50.33952 | 26890 ft | 401 kts | 131° |
| 2026-05-08 14:56 | -28.62078 | -50.31978 | 26885 ft | 394 kts | 160° |
| 2026-05-08 14:56 | -28.64644 | -50.31179 | 26884 ft | 374 kts | 189° |
| 2026-05-08 14:56 | -28.67106 | -50.31624 | 26887 ft | 347 kts | 214° |
| 2026-05-08 14:57 | -28.69205 | -50.32861 | 26891 ft | 337 kts | 223° |
| 2026-05-08 14:57 | -28.71199 | -50.34243 | 26891 ft | 336 kts | 225° |
| 2026-05-08 14:57 | -28.73162 | -50.35702 | 26776 ft | 344 kts | 227° |
| 2026-05-08 14:57 | -28.75119 | -50.37340 | 26406 ft | 351 kts | 229° |
| 2026-05-08 14:58 | -28.77053 | -50.39044 | 26019 ft | 351 kts | 229° |
| 2026-05-08 14:58 | -28.78975 | -50.40751 | 25632 ft | 350 kts | 229° |
| 2026-05-08 14:58 | -28.80893 | -50.42444 | 25266 ft | 348 kts | 228° |
| 2026-05-08 14:58 | -28.82816 | -50.44121 | 24829 ft | 348 kts | 228° |
| 2026-05-08 14:59 | -28.84745 | -50.45780 | 24402 ft | 347 kts | 227° |
| 2026-05-08 14:59 | -28.88583 | -50.49054 | 23539 ft | 343 kts | 227° |
| 2026-05-08 14:59 | -28.90487 | -50.50677 | 23065 ft | 340 kts | 227° |
| 2026-05-08 15:00 | -28.92374 | -50.52287 | 22636 ft | 337 kts | 227° |
| 2026-05-08 15:00 | -28.94218 | -50.53861 | 22232 ft | 333 kts | 227° |
| 2026-05-08 15:00 | -28.96092 | -50.55460 | 21794 ft | 330 kts | 227° |
| 2026-05-08 15:00 | -28.97920 | -50.57021 | 21381 ft | 327 kts | 227° |
| 2026-05-08 15:01 | -28.99738 | -50.58573 | 20964 ft | 325 kts | 227° |
| 2026-05-08 15:01 | -29.01514 | -50.60091 | 20563 ft | 322 kts | 228° |
| 2026-05-08 15:01 | -29.03296 | -50.61619 | 20159 ft | 319 kts | 228° |
| 2026-05-08 15:01 | -29.05060 | -50.63133 | 19758 ft | 316 kts | 228° |
| 2026-05-08 15:02 | -29.06834 | -50.64658 | 19353 ft | 314 kts | 228° |
| 2026-05-08 15:02 | -29.08572 | -50.66154 | 18961 ft | 312 kts | 229° |
| 2026-05-08 15:02 | -29.10275 | -50.67619 | 18563 ft | 310 kts | 227° |
| 2026-05-08 15:02 | -29.12173 | -50.68883 | 18156 ft | 323 kts | 214° |
| 2026-05-08 15:03 | -29.14205 | -50.69595 | 17706 ft | 337 kts | 200° |
| 2026-05-08 15:03 | -29.16577 | -50.69812 | 17254 ft | 344 kts | 192° |
| 2026-05-08 15:03 | -29.18961 | -50.69924 | 16815 ft | 342 kts | 192° |
| 2026-05-08 15:03 | -29.21333 | -50.70037 | 16382 ft | 340 kts | 192° |
| 2026-05-08 15:04 | -29.23695 | -50.70151 | 15934 ft | 339 kts | 192° |
| 2026-05-08 15:04 | -29.25997 | -50.70267 | 15527 ft | 337 kts | 192° |
| 2026-05-08 15:04 | -29.28338 | -50.70390 | 15108 ft | 335 kts | 192° |
| 2026-05-08 15:04 | -29.30669 | -50.70517 | 14704 ft | 338 kts | 192° |
| 2026-05-08 15:05 | -29.32264 | -50.70601 | 14467 ft | 342 kts | 192° |
| 2026-05-08 15:05 | -29.35417 | -50.70746 | 13986 ft | 340 kts | 191° |
| 2026-05-08 15:05 | -29.37776 | -50.70840 | 13598 ft | 339 kts | 191° |
| 2026-05-08 15:05 | -29.39366 | -50.70902 | 13328 ft | 337 kts | 191° |
| 2026-05-08 15:06 | -29.42460 | -50.71025 | 12852 ft | 335 kts | 191° |
| 2026-05-08 15:06 | -29.44784 | -50.71121 | 12483 ft | 333 kts | 191° |
| 2026-05-08 15:06 | -29.47094 | -50.71220 | 12119 ft | 331 kts | 191° |
| 2026-05-08 15:06 | -29.49392 | -50.71320 | 11759 ft | 329 kts | 191° |
| 2026-05-08 15:07 | -29.50937 | -50.71388 | 11519 ft | 328 kts | 191° |
| 2026-05-08 15:07 | -29.53209 | -50.71488 | 11166 ft | 326 kts | 191° |
| 2026-05-08 15:07 | -29.55469 | -50.71587 | 10817 ft | 324 kts | 191° |
| 2026-05-08 15:07 | -29.58439 | -50.71718 | 10369 ft | 321 kts | 190° |
| 2026-05-08 15:08 | -29.59940 | -50.71785 | 10109 ft | 317 kts | 190° |
| 2026-05-08 15:08 | -29.62125 | -50.71879 | 9775 ft | 312 kts | 189° |
| 2026-05-08 15:08 | -29.64284 | -50.71971 | 9428 ft | 309 kts | 189° |
| 2026-05-08 15:08 | -29.66425 | -50.72064 | 9092 ft | 308 kts | 190° |
| 2026-05-08 15:09 | -29.68560 | -50.72157 | 8769 ft | 307 kts | 190° |
| 2026-05-08 15:09 | -29.70672 | -50.72329 | 8431 ft | 299 kts | 199° |
| 2026-05-08 15:09 | -29.72611 | -50.73017 | 8117 ft | 286 kts | 214° |
| 2026-05-08 15:09 | -29.74268 | -50.74186 | 7808 ft | 274 kts | 228° |
| 2026-05-08 15:10 | -29.75617 | -50.75647 | 7512 ft | 269 kts | 233° |
| 2026-05-08 15:10 | -29.76945 | -50.77158 | 7240 ft | 268 kts | 233° |
| 2026-05-08 15:10 | -29.78267 | -50.78658 | 6951 ft | 266 kts | 233° |
| 2026-05-08 15:10 | -29.79587 | -50.80155 | 6659 ft | 266 kts | 233° |
| 2026-05-08 15:11 | -29.80907 | -50.81649 | 6372 ft | 266 kts | 234° |
| 2026-05-08 15:11 | -29.82222 | -50.83140 | 6065 ft | 264 kts | 234° |
| 2026-05-08 15:11 | -29.83528 | -50.84618 | 5770 ft | 262 kts | 233° |
| 2026-05-08 15:11 | -29.84821 | -50.86083 | 5489 ft | 260 kts | 234° |
| 2026-05-08 15:12 | -29.86108 | -50.87546 | 5207 ft | 259 kts | 233° |
| 2026-05-08 15:12 | -29.87384 | -50.88997 | 4929 ft | 256 kts | 233° |
| 2026-05-08 15:12 | -29.88642 | -50.90430 | 4647 ft | 253 kts | 233° |
| 2026-05-08 15:12 | -29.89877 | -50.91815 | 4368 ft | 244 kts | 229° |
| 2026-05-08 15:13 | -29.91284 | -50.92888 | 4106 ft | 243 kts | 213° |
| 2026-05-08 15:13 | -29.92829 | -50.93588 | 3935 ft | 232 kts | 209° |
| 2026-05-08 15:13 | -29.94306 | -50.94241 | 3731 ft | 225 kts | 209° |
| 2026-05-08 15:13 | -29.95752 | -50.94889 | 3491 ft | 220 kts | 209° |
| 2026-05-08 15:14 | -29.97154 | -50.95518 | 3247 ft | 214 kts | 208° |
| 2026-05-08 15:14 | -29.98449 | -50.96269 | 3014 ft | 202 kts | 225° |
| 2026-05-08 15:14 | -29.99336 | -50.97438 | 2798 ft | 188 kts | 246° |
| 2026-05-08 15:14 | -29.99762 | -50.98792 | 2610 ft | 173 kts | 264° |
| 2026-05-08 15:15 | -29.99795 | -51.00129 | 2418 ft | 163 kts | 275° |
| 2026-05-08 15:15 | -29.99766 | -51.01408 | 2232 ft | 157 kts | 274° |
| 2026-05-08 15:15 | -29.99742 | -51.02649 | 2050 ft | 151 kts | 275° |
| 2026-05-08 15:15 | -29.99722 | -51.03810 | 1877 ft | 139 kts | 275° |
| 2026-05-08 15:16 | -29.99702 | -51.04894 | 1742 ft | 133 kts | 274° |
| 2026-05-08 15:16 | -29.99677 | -51.05950 | 1552 ft | 131 kts | 275° |
| 2026-05-08 15:16 | -29.99657 | -51.06998 | 1352 ft | 131 kts | 275° |
| 2026-05-08 15:16 | -29.99634 | -51.08041 | 1197 ft | 130 kts | 276° |
| 2026-05-08 15:17 | -29.99608 | -51.09088 | 1028 ft | 132 kts | 275° |
| 2026-05-08 15:17 | -29.99613 | -51.10143 | 854 ft | 130 kts | 276° |
| 2026-05-08 15:17 | -29.99585 | -51.11188 | 697 ft | 131 kts | 276° |
| 2026-05-08 15:17 | -29.99555 | -51.12235 | 516 ft | 131 kts | 275° |
| 2026-05-08 15:18 | -29.99538 | -51.13284 | 349 ft | 131 kts | 276° |
| 2026-05-08 15:18 | -29.99515 | -51.14334 | 180 ft | 131 kts | 271° |
| 2026-05-08 15:18 | -29.99496 | -51.15385 | 31 ft | 130 kts | 270° |
| 2026-05-08 15:18 | -29.99478 | -51.16337 | 20 ft | 105 kts | 271° |
| 2026-05-08 15:19 | -29.99465 | -51.16985 | 20 ft | 56 kts | 271° |
| 2026-05-08 15:19 | -29.99458 | -51.17356 | 20 ft | 39 kts | 271° |
| 2026-05-08 15:19 | -29.99453 | -51.17611 | 20 ft | 22 kts | 271° |
| 2026-05-08 15:19 | -29.99414 | -51.17702 | 20 ft | 10 kts | 350° |
| 2026-05-08 15:20 | -29.99353 | -51.17702 | 20 ft | 8 kts | 1° |
| 2026-05-08 15:20 | -29.99290 | -51.17700 | 20 ft | 10 kts | 0° |
| 2026-05-08 15:20 | -29.99226 | -51.17699 | 20 ft | 9 kts | 0° |
| 2026-05-08 15:20 | -29.99175 | -51.17670 | 20 ft | 7 kts | 57° |
| 2026-05-08 15:21 | -29.99170 | -51.17624 | 20 ft | 6 kts | 90° |
| 2026-05-08 15:21 | -29.99178 | -51.17565 | 20 ft | 8 kts | 94° |
| 2026-05-08 15:21 | -29.99179 | -51.17511 | 20 ft | 6 kts | 91° |
| 2026-05-08 15:21 | -29.99180 | -51.17468 | 20 ft | 6 kts | 91° |
| 2026-05-08 15:22 | -29.99181 | -51.17434 | 20 ft | 2 kts | 91° |
| 2026-05-08 15:22 | -29.99181 | -51.17416 | 20 ft | 3 kts | 91° |
| 2026-05-08 15:22 | -29.99165 | -51.17394 | 21 ft | 4 kts | 15° |
| 2026-05-08 15:22 | -29.99130 | -51.17392 | 20 ft | 3 kts | 0° |
| 2026-05-08 15:23 | -29.99121 | -51.17392 | 20 ft | 0 kts | 360° |
| 2026-05-08 15:24 | -29.99163 | -51.17393 | 23 ft | 0 kts | 11° |
| 2026-05-08 15:25 | -29.99490 | -51.15703 | 28 ft | 119 kts | 270° |
| 2026-05-08 15:25 | -29.99471 | -51.16680 | 23 ft | 0 kts | 271° |
| 2026-05-08 15:25 | -29.99501 | -51.15085 | 60 ft | 127 kts | 270° |
| 2026-05-08 15:26 | -29.99485 | -51.16089 | 24 ft | 108 kts | 272° |
| 2026-05-08 15:26 | -29.99468 | -51.16846 | 20 ft | 68 kts | 271° |
| 2026-05-08 15:26 | -29.99460 | -51.17267 | 20 ft | 45 kts | 271° |
| 2026-05-08 15:26 | -29.99498 | -51.15252 | 44 ft | 130 kts | 270° |
| 2026-05-08 15:27 | -29.99481 | -51.16229 | 22 ft | 108 kts | 272° |
| 2026-05-08 15:27 | -29.99466 | -51.16929 | 20 ft | 63 kts | 271° |
| 2026-05-08 15:27 | -29.99453 | -51.17619 | 20 ft | 23 kts | 271° |
| 2026-05-08 15:27 | -29.99453 | -51.17633 | 20 ft | 21 kts | 271° |
| 2026-05-08 15:28 | -29.99405 | -51.17702 | 20 ft | 10 kts | 355° |
| 2026-05-08 15:28 | -29.99346 | -51.17701 | 20 ft | 8 kts | 1° |
| 2026-05-08 15:28 | -29.99441 | -51.17686 | 20 ft | 9 kts | 308° |
| 2026-05-08 15:28 | -29.99356 | -51.17702 | 20 ft | 8 kts | 1° |
| 2026-05-08 15:29 | -29.99293 | -51.17700 | 21 ft | 12 kts | 0° |
| 2026-05-08 15:29 | -29.99229 | -51.17699 | 20 ft | 10 kts | 0° |
| 2026-05-08 15:29 | -29.99177 | -51.17673 | 20 ft | 10 kts | 54° |
| 2026-05-08 15:29 | -29.99175 | -51.17669 | 20 ft | 10 kts | 59° |
| 2026-05-08 15:30 | -29.99179 | -51.17677 | 20 ft | 7 kts | 48° |
| 2026-05-08 15:30 | -29.99170 | -51.17630 | 20 ft | 18 kts | 88° |
| 2026-05-08 15:30 | -29.99177 | -51.17574 | 20 ft | 18 kts | 96° |
| 2026-05-08 15:30 | -29.99179 | -51.17518 | 20 ft | 18 kts | 91° |
| 2026-05-08 15:31 | -29.99180 | -51.17475 | 20 ft | 20 kts | 91° |
| 2026-05-08 15:31 | -29.99181 | -51.17437 | 20 ft | 21 kts | 91° |
| 2026-05-08 15:31 | -29.99181 | -51.17419 | 20 ft | 18 kts | 91° |
| 2026-05-08 15:31 | -29.99168 | -51.17394 | 21 ft | 3 kts | 23° |
| 2026-05-08 15:32 | -29.99176 | -51.17399 | 20 ft | 8 kts | 58° |
| 2026-05-08 15:32 | -29.99146 | -51.17393 | 21 ft | 5 kts | 1° |
| 2026-05-08 15:32 | -29.99121 | -51.17392 | 20 ft | 1 kts | 360° |
| 2026-05-08 15:33 | -29.99129 | -51.17392 | 22 ft | 4 kts | 0° |
| 2026-05-08 15:33 | -29.99121 | -51.17392 | 20 ft | 1 kts | 360° |